Archival Weather

Yacuiba

Yacuiba, Bolivia (SLYA)

Report from: Thursday, December 7, 2023 10:00 AM -04
Current time: Tuesday, April 23, 2024 3:30 AM -04

Current weather – Weather history – Daily summaries
Weather forecast

Temperature23.0°C (73.4°F)
Dew point21.0°C (69.8°F)
Winds 6 kts (3.1 m/s, 6.9 mph) Southwest (220°)
Visibility6.2 mi. (10 km)
Clouds Ceiling: Broken clouds 1,800 ft. (549 m)
Overcast 7,000 ft. (2,134 m)
Altimeter29.97 in.Hg (1015 mB)
Relative humidity89 %
Density altitude1,207 ft. (368 m)
Flight conditions Marginal Visual Meteorological Conditions
Raw dataSLYA 071400Z 22006KT 9999 BKN018 OVC070 23/21 Q1015
An error has occurred. This application may no longer respond until reloaded. Reload 🗙